This is the latest recevied weather packets stored in our database for station/object N4LLZ-13. If no packets are shown the sender has not sent any weather packets the latest 10 day(s).
| Time | Temp. | Humidity | Pressure | Rain* | Wind** | Luminosity | Snow |
|---|---|---|---|---|---|---|---|
| 1787768023 | 31.67° C | 47% | 1017.8 hPa | 0 mm | - | - | - |
| 1787767722 | 31.11° C | 50% | 1017.8 hPa | 0 mm | - | - | - |
| 1787767421 | 31.11° C | 51% | 1017.9 hPa | 0 mm | - | - | - |
| 1787767120 | 31.11° C | 54% | 1017.9 hPa | 0 mm | - | - | - |
| 1787766819 | 31.67° C | 50% | 1017.9 hPa | 0 mm | - | - | - |
| 1787766518 | 31.67° C | 49% | 1018 hPa | 0 mm | - | - | - |
| 1787766217 | 31.67° C | 48% | 1018 hPa | 0 mm | - | - | - |
| 1787765917 | 31.67° C | 48% | 1018.1 hPa | 0 mm | - | - | - |
| 1787765616 | 31.67° C | 49% | 1018.1 hPa | 0 mm | - | - | - |
| 1787765315 | 31.67° C | 51% | 1018.2 hPa | 0 mm | - | - | - |
| 1787765014 | 31.11° C | 54% | 1018.2 hPa | 0 mm | - | - | - |
| 1787764713 | 31.11° C | 52% | 1018.4 hPa | 0 mm | - | - | - |
| 1787764412 | 31.11° C | 52% | 1018.5 hPa | 0 mm | - | - | - |
| 1787764111 | 31.11° C | 52% | 1018.4 hPa | 0 mm | - | - | - |
| 1787763810 | 31.11° C | 53% | 1018.4 hPa | 0 mm | - | - | - |
| 1787763509 | 30.56° C | 54% | 1018.5 hPa | 0 mm | - | - | - |
| 1787763208 | 30° C | 54% | 1018.5 hPa | 0 mm | - | - | - |
| 1787762908 | 30° C | 56% | 1018.5 hPa | 0 mm | - | - | - |
| 1787762607 | 30.56° C | 56% | 1018.5 hPa | 0 mm | - | - | - |
| 1787762306 | 30.56° C | 54% | 1018.5 hPa | 0 mm | - | - | - |
| 1787762005 | 30° C | 56% | 1018.5 hPa | 0 mm | - | - | - |
| 1787761704 | 30° C | 56% | 1018.6 hPa | 0 mm | - | - | - |
| 1787761403 | 30° C | 58% | 1018.6 hPa | 0 mm | - | - | - |
| 1787761103 | 30.56° C | 56% | 1018.7 hPa | 0 mm | - | - | - |
| 1787760802 | 30.56° C | 56% | 1018.7 hPa | 0 mm | - | - | - |
* Rain latest hour (hover to see other rain measurements)
** Current wind speed in m/s (hover to see current wind gust speed)